Tropical Cyclones
[Index]
Main Index Home Page Stock Weather Photos Extreme Storms Discussion Storm News and Storm Chasing Reports Tropical Cyclones / Hurricanes / Typhoons Weather Data and Links Wild Fires / Bushfires Weather Observation Techniques Weather Picture Catalogue Tornado Pictures and Reports Stock Video Footage and DVDs for sale
Season 1988-1989 Tropical Cyclone MEENA Track Map
Season 1988-1989 Summaries: [BoM-AU] [JTWC-AU] [JTWC-SIO] [JTWC-SPAC] [JTWC-SH]
<<- Previous TC | JTWC 1988-1989 Season | Next TC ->>

click for intensity scale information  Lat/long Grid: Show Hide

 Date Labels: Show Hide

Joint Typhoon Warning Centre Cyclone Data

Name: MEENA

01 May 1989 12:00 UTC to 11 May 1989 00:00 UTC

    date/time    lat    long     hPa   cat  kts
1989-05-01 12    9.1   161.7                  15          
1989-05-01 18    9.2   161.8                  20          
1989-05-02 00    9.4   161.8                  25          
1989-05-02 06    9.7   161.7                  25          
1989-05-02 12   10.1   161.8                  25          
1989-05-02 18   11.0   161.7                  25          
1989-05-03 00   11.8   161.3                  25          
1989-05-03 06   11.4   161.8                  25          
1989-05-03 12   11.1   161.9                  30          
1989-05-03 18   11.6   161.5                  30          
1989-05-04 00   12.0   161.3                  30          
1989-05-04 06   12.4   161.3                  30          
1989-05-04 12   12.8   161.2                  35          
1989-05-04 18   13.2   160.9            1     40          
1989-05-05 00   13.6   160.3            1     45          
1989-05-05 06   14.2   159.8            1     45          
1989-05-05 12   14.7   159.0            1     45          
1989-05-05 18   15.2   158.0            1     45          
1989-05-06 00   15.6   156.9            1     45          
1989-05-06 06   15.1   156.0            1     50          
1989-05-06 12   14.7   155.0            1     45          
1989-05-06 18   14.1   154.1            1     40          
1989-05-07 00   13.4   152.3            1     40          
1989-05-07 06   12.8   151.1                  35          
1989-05-07 12   12.3   150.3                  35          
1989-05-07 18   12.5   149.4                  35          
1989-05-08 00   12.5   148.8                  35          
1989-05-08 06   12.6   148.0                  35          
1989-05-08 12   12.4   146.8                  35          
1989-05-08 18   12.3   144.9                  30          
1989-05-09 00   12.5   143.3                  30          
1989-05-09 06   12.6   142.6                  25          
1989-05-09 12   12.6   141.8                  20          
1989-05-09 18   11.8   140.3                  25          
1989-05-10 00   11.4   138.7                  25          
1989-05-10 06   11.7   137.7                  25          
1989-05-10 12   11.4   136.9                  25          
1989-05-10 18   11.2   136.0                  25          
1989-05-11 00   11.0   135.1                  25          
Winds are 1-min average.

Tropical cyclone tracks developed by Michael Bath using data from the Joint Typhoon Warning Centre Best Tracks and Google Maps.


[Australian Severe Weather index] [Copyright Notice] [Email Contacts] [Search This Site] [Privacy Policy]
Document: tropical_cyclone_meena.htm Updated: 18 September 2016